Marble Falls' Hourly Summary for Tuesday, March 14, 2017
Hour Temp
(f)
RH
(%)
Solar Rad.
(MJ/m2)
Rainfall
(in)
Wind
(mph)
3/14/2017 12:00 AM 55 51 0 0 1.94
3/14/2017 1:00 AM 53 51 0 0 0.85
3/14/2017 2:00 AM 52 57 0 0 0.9
3/14/2017 3:00 AM 49 58 0 0 0.9
3/14/2017 4:00 AM 48 67 0 0 0.61
3/14/2017 5:00 AM 45 69 0 0 1.99
3/14/2017 6:00 AM 43 69 0 0 3.57
3/14/2017 7:00 AM 43 59 0 0 3.57
3/14/2017 8:00 AM 43 62 0.37 0 1.73
3/14/2017 9:00 AM 47 58 1.12 0 3.64
3/14/2017 10:00 AM 51 48 1.85 0 3.89
3/14/2017 11:00 AM 55 48 2.45 0 3.89
3/14/2017 12:00 PM 60 40 2.83 0 4.72
3/14/2017 1:00 PM 65 40 2.83 0 5.74
3/14/2017 2:00 PM 69 39 1.59 0 7.12
3/14/2017 3:00 PM 71 37 1.92 0 7.12
3/14/2017 4:00 PM 73 34 1.92 0 7.52
3/14/2017 5:00 PM 73 32 1.53 0 7.83
3/14/2017 6:00 PM 73 33 1.53 0 7.83
3/14/2017 7:00 PM 72 35 0.8 0 7.34
3/14/2017 8:00 PM 69 42 0.18 0 6.82
3/14/2017 9:00 PM 65 48 0 0 4.79
3/14/2017 10:00 PM 61 54 0 0 6.48
3/14/2017 11:00 PM 60 54 0 0 6.48
Data Summary 58 49 20.92 0.00 4.47